createdAt,value
2022-10-25T00:08:31.525Z,14.81
2022-10-25T00:28:31.450Z,14.68
2022-10-25T00:48:31.428Z,14.68
2022-10-25T01:08:31.415Z,14.81
2022-10-25T01:28:31.383Z,14.68
2022-10-25T01:48:31.361Z,14.81
2022-10-25T02:08:31.355Z,14.75
2022-10-25T02:48:31.283Z,14.75
2022-10-25T03:08:31.275Z,14.87
2022-10-25T03:28:31.264Z,14.81
2022-10-25T03:48:31.236Z,14.62
2022-10-25T04:08:31.206Z,14.62
2022-10-25T04:28:31.176Z,14.62
2022-10-25T04:48:31.177Z,14.75
2022-10-25T05:08:31.153Z,14.75
2022-10-25T05:28:31.118Z,14.62
2022-10-25T05:48:31.138Z,14.87
2022-10-25T06:08:31.082Z,14.62
2022-10-25T06:28:31.075Z,14.68
2022-10-25T06:48:31.053Z,14.56
2022-10-25T07:08:31.028Z,14.68
2022-10-25T07:28:31.005Z,14.68
2022-10-25T07:48:30.968Z,14.62
2022-10-25T08:08:30.963Z,14.87
2022-10-25T08:28:31.040Z,14.75
2022-10-25T08:48:30.929Z,14.87
2022-10-25T09:08:30.973Z,14.75
2022-10-25T09:28:30.855Z,15.00
2022-10-25T09:48:30.826Z,14.87
2022-10-25T10:08:30.822Z,14.87
2022-10-25T10:28:30.785Z,14.87
2022-10-25T10:48:30.827Z,14.81
2022-10-25T11:08:30.769Z,14.87
2022-10-25T11:28:30.729Z,14.75
2022-10-25T11:48:30.724Z,14.93
2022-10-25T12:08:30.676Z,14.81
2022-10-25T12:28:30.637Z,14.87
2022-10-25T12:48:30.607Z,15.00
2022-10-25T13:08:30.635Z,15.12
2022-10-25T13:28:30.601Z,14.87
2022-10-25T13:48:30.533Z,14.87
2022-10-25T14:08:30.496Z,14.87
2022-10-25T14:28:30.469Z,15.06
2022-10-25T14:48:30.430Z,15.06
2022-10-25T15:08:30.440Z,15.25
2022-10-25T15:28:30.465Z,15.00
2022-10-25T15:48:30.462Z,15.00
2022-10-25T16:08:30.345Z,14.93
2022-10-25T16:28:30.399Z,15.06
2022-10-25T16:48:30.294Z,15.12
2022-10-25T17:08:30.347Z,14.87
2022-10-25T17:28:30.231Z,15.00
2022-10-25T17:48:30.238Z,15.00
2022-10-25T18:08:30.192Z,14.87
2022-10-25T18:28:30.165Z,14.87
2022-10-25T18:48:30.153Z,14.81
2022-10-25T19:08:30.117Z,14.75
2022-10-25T19:28:30.107Z,14.75
2022-10-25T19:48:30.144Z,14.75
2022-10-25T20:08:30.145Z,14.81
2022-10-25T20:28:30.034Z,14.75
2022-10-25T20:48:30.069Z,14.75
2022-10-25T21:08:30.026Z,14.68
2022-10-25T21:28:29.954Z,14.81
2022-10-25T21:48:29.963Z,14.68
2022-10-25T22:08:29.922Z,14.68
2022-10-25T22:28:29.920Z,14.68
2022-10-25T22:48:29.902Z,14.75
2022-10-25T23:08:29.868Z,14.75
2022-10-25T23:28:29.826Z,14.68
2022-10-25T23:48:29.820Z,14.75
